sensor_id;sensor_type;location;lat;lon;timestamp;P1;durP1;ratioP1;P2;durP2;ratioP2
28587;SDS011;15787;49.662;10.162;2023-02-15T00:00:52;33.13;;;16.40;;
28587;SDS011;15787;49.662;10.162;2023-02-15T00:03:26;32.42;;;14.70;;
28587;SDS011;15787;49.662;10.162;2023-02-15T00:06:02;29.15;;;14.13;;
28587;SDS011;15787;49.662;10.162;2023-02-15T00:08:35;29.33;;;14.07;;
28587;SDS011;15787;49.662;10.162;2023-02-15T00:11:09;32.58;;;13.73;;
28587;SDS011;15787;49.662;10.162;2023-02-15T00:13:43;26.45;;;13.38;;
28587;SDS011;15787;49.662;10.162;2023-02-15T00:16:16;28.33;;;14.32;;
28587;SDS011;15787;49.662;10.162;2023-02-15T00:18:51;28.95;;;12.35;;
28587;SDS011;15787;49.662;10.162;2023-02-15T00:21:25;28.10;;;13.43;;
28587;SDS011;15787;49.662;10.162;2023-02-15T00:23:59;30.00;;;14.05;;
28587;SDS011;15787;49.662;10.162;2023-02-15T00:26:33;31.20;;;14.52;;
28587;SDS011;15787;49.662;10.162;2023-02-15T00:29:06;32.72;;;15.07;;
28587;SDS011;15787;49.662;10.162;2023-02-15T00:31:39;31.20;;;14.98;;
28587;SDS011;15787;49.662;10.162;2023-02-15T00:34:13;31.30;;;14.05;;
28587;SDS011;15787;49.662;10.162;2023-02-15T00:36:48;30.17;;;14.05;;
28587;SDS011;15787;49.662;10.162;2023-02-15T00:39:22;31.42;;;14.35;;
28587;SDS011;15787;49.662;10.162;2023-02-15T00:41:55;28.08;;;13.63;;
28587;SDS011;15787;49.662;10.162;2023-02-15T00:44:27;27.17;;;13.23;;
28587;SDS011;15787;49.662;10.162;2023-02-15T00:47:00;27.60;;;13.60;;
28587;SDS011;15787;49.662;10.162;2023-02-15T00:49:33;26.35;;;13.38;;
28587;SDS011;15787;49.662;10.162;2023-02-15T00:52:07;27.80;;;12.85;;
28587;SDS011;15787;49.662;10.162;2023-02-15T00:54:40;27.67;;;12.95;;
28587;SDS011;15787;49.662;10.162;2023-02-15T00:57:13;25.92;;;13.57;;
28587;SDS011;15787;49.662;10.162;2023-02-15T00:59:46;28.95;;;14.93;;
28587;SDS011;15787;49.662;10.162;2023-02-15T01:02:19;27.67;;;13.63;;
28587;SDS011;15787;49.662;10.162;2023-02-15T01:04:51;26.77;;;12.77;;
28587;SDS011;15787;49.662;10.162;2023-02-15T01:07:28;29.67;;;13.80;;
28587;SDS011;15787;49.662;10.162;2023-02-15T01:10:00;23.77;;;12.15;;
28587;SDS011;15787;49.662;10.162;2023-02-15T01:12:33;27.75;;;13.02;;
28587;SDS011;15787;49.662;10.162;2023-02-15T01:15:06;28.15;;;12.95;;
28587;SDS011;15787;49.662;10.162;2023-02-15T01:17:41;25.05;;;12.82;;
28587;SDS011;15787;49.662;10.162;2023-02-15T01:20:15;29.27;;;14.18;;
28587;SDS011;15787;49.662;10.162;2023-02-15T01:22:49;25.52;;;12.40;;
28587;SDS011;15787;49.662;10.162;2023-02-15T01:25:23;27.35;;;13.27;;
28587;SDS011;15787;49.662;10.162;2023-02-15T01:27:56;30.15;;;13.95;;
28587;SDS011;15787;49.662;10.162;2023-02-15T01:30:29;25.98;;;12.55;;
28587;SDS011;15787;49.662;10.162;2023-02-15T01:33:02;25.08;;;13.55;;
28587;SDS011;15787;49.662;10.162;2023-02-15T01:35:36;27.92;;;14.35;;
28587;SDS011;15787;49.662;10.162;2023-02-15T01:38:10;25.75;;;13.52;;
28587;SDS011;15787;49.662;10.162;2023-02-15T01:40:43;26.42;;;13.07;;
28587;SDS011;15787;49.662;10.162;2023-02-15T01:43:16;25.25;;;13.32;;
28587;SDS011;15787;49.662;10.162;2023-02-15T01:45:49;26.27;;;13.88;;
28587;SDS011;15787;49.662;10.162;2023-02-15T01:48:22;25.08;;;13.27;;
28587;SDS011;15787;49.662;10.162;2023-02-15T01:51:00;27.00;;;13.15;;
28587;SDS011;15787;49.662;10.162;2023-02-15T01:53:37;24.27;;;12.40;;
28587;SDS011;15787;49.662;10.162;2023-02-15T01:56:13;25.02;;;13.57;;
28587;SDS011;15787;49.662;10.162;2023-02-15T02:01:29;22.00;;;11.60;;
28587;SDS011;15787;49.662;10.162;2023-02-15T02:04:04;26.00;;;12.80;;
28587;SDS011;15787;49.662;10.162;2023-02-15T02:06:41;24.42;;;12.15;;
28587;SDS011;15787;49.662;10.162;2023-02-15T02:09:15;26.85;;;12.45;;
28587;SDS011;15787;49.662;10.162;2023-02-15T02:11:48;28.25;;;12.88;;
28587;SDS011;15787;49.662;10.162;2023-02-15T02:14:21;24.20;;;12.20;;
28587;SDS011;15787;49.662;10.162;2023-02-15T02:16:56;26.17;;;13.95;;
28587;SDS011;15787;49.662;10.162;2023-02-15T02:19:44;26.92;;;12.73;;
28587;SDS011;15787;49.662;10.162;2023-02-15T02:22:43;24.15;;;12.15;;
28587;SDS011;15787;49.662;10.162;2023-02-15T02:29:05;28.20;;;12.35;;
28587;SDS011;15787;49.662;10.162;2023-02-15T02:32:16;22.88;;;11.68;;
28587;SDS011;15787;49.662;10.162;2023-02-15T02:35:06;24.23;;;12.20;;
28587;SDS011;15787;49.662;10.162;2023-02-15T02:40:23;25.05;;;12.43;;
28587;SDS011;15787;49.662;10.162;2023-02-15T02:43:04;24.80;;;11.68;;
28587;SDS011;15787;49.662;10.162;2023-02-15T02:48:18;25.67;;;12.77;;
28587;SDS011;15787;49.662;10.162;2023-02-15T02:50:55;25.45;;;11.90;;
28587;SDS011;15787;49.662;10.162;2023-02-15T02:53:28;25.92;;;12.30;;
28587;SDS011;15787;49.662;10.162;2023-02-15T02:56:05;25.08;;;12.02;;
28587;SDS011;15787;49.662;10.162;2023-02-15T02:58:43;28.75;;;12.10;;
28587;SDS011;15787;49.662;10.162;2023-02-15T03:01:20;31.88;;;13.50;;
28587;SDS011;15787;49.662;10.162;2023-02-15T03:03:57;28.35;;;11.60;;
28587;SDS011;15787;49.662;10.162;2023-02-15T03:06:36;23.20;;;11.15;;
28587;SDS011;15787;49.662;10.162;2023-02-15T03:09:14;22.80;;;11.63;;
28587;SDS011;15787;49.662;10.162;2023-02-15T03:11:51;22.65;;;11.25;;
28587;SDS011;15787;49.662;10.162;2023-02-15T03:14:26;26.48;;;11.95;;
28587;SDS011;15787;49.662;10.162;2023-02-15T03:16:59;26.00;;;12.55;;
28587;SDS011;15787;49.662;10.162;2023-02-15T03:19:34;27.35;;;11.77;;
28587;SDS011;15787;49.662;10.162;2023-02-15T03:22:12;27.13;;;12.55;;
28587;SDS011;15787;49.662;10.162;2023-02-15T03:24:53;27.67;;;12.15;;
28587;SDS011;15787;49.662;10.162;2023-02-15T03:27:31;25.13;;;11.68;;
28587;SDS011;15787;49.662;10.162;2023-02-15T03:30:08;26.92;;;12.02;;
28587;SDS011;15787;49.662;10.162;2023-02-15T03:32:43;25.27;;;11.23;;
28587;SDS011;15787;49.662;10.162;2023-02-15T03:35:19;27.55;;;12.48;;
28587;SDS011;15787;49.662;10.162;2023-02-15T03:37:58;28.25;;;12.18;;
28587;SDS011;15787;49.662;10.162;2023-02-15T03:40:34;30.67;;;13.35;;
28587;SDS011;15787;49.662;10.162;2023-02-15T03:43:28;22.75;;;10.98;;
28587;SDS011;15787;49.662;10.162;2023-02-15T03:46:11;24.00;;;10.73;;
28587;SDS011;15787;49.662;10.162;2023-02-15T03:48:49;25.77;;;11.90;;
28587;SDS011;15787;49.662;10.162;2023-02-15T03:51:26;27.55;;;11.38;;
28587;SDS011;15787;49.662;10.162;2023-02-15T03:54:11;25.73;;;12.23;;
28587;SDS011;15787;49.662;10.162;2023-02-15T03:57:09;26.67;;;11.25;;
28587;SDS011;15787;49.662;10.162;2023-02-15T04:00:03;24.95;;;11.55;;
28587;SDS011;15787;49.662;10.162;2023-02-15T04:03:00;31.13;;;11.70;;
28587;SDS011;15787;49.662;10.162;2023-02-15T04:05:41;26.98;;;11.38;;
28587;SDS011;15787;49.662;10.162;2023-02-15T04:08:15;27.65;;;12.27;;
28587;SDS011;15787;49.662;10.162;2023-02-15T04:10:49;26.73;;;11.07;;
28587;SDS011;15787;49.662;10.162;2023-02-15T04:13:24;26.13;;;11.68;;
28587;SDS011;15787;49.662;10.162;2023-02-15T04:16:04;25.10;;;11.25;;
28587;SDS011;15787;49.662;10.162;2023-02-15T04:18:41;25.98;;;11.70;;
28587;SDS011;15787;49.662;10.162;2023-02-15T04:21:32;22.08;;;10.73;;
28587;SDS011;15787;49.662;10.162;2023-02-15T04:24:23;25.77;;;11.32;;
28587;SDS011;15787;49.662;10.162;2023-02-15T04:27:15;23.50;;;9.85;;
28587;SDS011;15787;49.662;10.162;2023-02-15T04:29:48;25.10;;;11.30;;
28587;SDS011;15787;49.662;10.162;2023-02-15T04:32:21;24.27;;;10.52;;
28587;SDS011;15787;49.662;10.162;2023-02-15T04:34:54;25.25;;;11.18;;
28587;SDS011;15787;49.662;10.162;2023-02-15T04:37:26;27.90;;;11.55;;
28587;SDS011;15787;49.662;10.162;2023-02-15T04:39:59;24.85;;;11.07;;
28587;SDS011;15787;49.662;10.162;2023-02-15T04:42:33;24.55;;;10.13;;
28587;SDS011;15787;49.662;10.162;2023-02-15T04:45:07;22.55;;;9.95;;
28587;SDS011;15787;49.662;10.162;2023-02-15T04:47:40;22.08;;;9.85;;
28587;SDS011;15787;49.662;10.162;2023-02-15T04:50:13;25.83;;;11.13;;
28587;SDS011;15787;49.662;10.162;2023-02-15T04:52:46;23.48;;;11.30;;
28587;SDS011;15787;49.662;10.162;2023-02-15T04:55:19;23.35;;;10.20;;
28587;SDS011;15787;49.662;10.162;2023-02-15T04:57:53;25.05;;;11.48;;
28587;SDS011;15787;49.662;10.162;2023-02-15T05:00:26;21.85;;;8.95;;
28587;SDS011;15787;49.662;10.162;2023-02-15T05:03:00;25.10;;;10.68;;
28587;SDS011;15787;49.662;10.162;2023-02-15T05:05:32;23.48;;;11.23;;
28587;SDS011;15787;49.662;10.162;2023-02-15T05:08:05;27.25;;;11.80;;
28587;SDS011;15787;49.662;10.162;2023-02-15T05:10:38;26.15;;;10.57;;
28587;SDS011;15787;49.662;10.162;2023-02-15T05:13:12;22.55;;;10.95;;
28587;SDS011;15787;49.662;10.162;2023-02-15T05:15:48;24.98;;;10.05;;
28587;SDS011;15787;49.662;10.162;2023-02-15T05:18:21;26.88;;;11.30;;
28587;SDS011;15787;49.662;10.162;2023-02-15T05:20:54;28.02;;;11.40;;
28587;SDS011;15787;49.662;10.162;2023-02-15T05:23:27;21.88;;;10.15;;
28587;SDS011;15787;49.662;10.162;2023-02-15T05:26:00;25.77;;;11.13;;
28587;SDS011;15787;49.662;10.162;2023-02-15T05:28:51;24.27;;;11.20;;
28587;SDS011;15787;49.662;10.162;2023-02-15T05:31:24;26.10;;;12.15;;
28587;SDS011;15787;49.662;10.162;2023-02-15T05:33:57;24.98;;;11.52;;
28587;SDS011;15787;49.662;10.162;2023-02-15T05:36:30;26.60;;;11.95;;
28587;SDS011;15787;49.662;10.162;2023-02-15T05:39:03;29.60;;;12.80;;
28587;SDS011;15787;49.662;10.162;2023-02-15T05:41:37;27.80;;;12.18;;
28587;SDS011;15787;49.662;10.162;2023-02-15T05:44:11;27.75;;;12.05;;
28587;SDS011;15787;49.662;10.162;2023-02-15T05:46:44;22.27;;;10.90;;
28587;SDS011;15787;49.662;10.162;2023-02-15T05:49:17;26.50;;;11.82;;
28587;SDS011;15787;49.662;10.162;2023-02-15T05:51:50;23.52;;;10.20;;
28587;SDS011;15787;49.662;10.162;2023-02-15T05:54:22;25.27;;;12.38;;
28587;SDS011;15787;49.662;10.162;2023-02-15T05:56:55;29.40;;;11.57;;
28587;SDS011;15787;49.662;10.162;2023-02-15T05:59:30;25.60;;;12.70;;
28587;SDS011;15787;49.662;10.162;2023-02-15T06:02:02;26.75;;;11.65;;
28587;SDS011;15787;49.662;10.162;2023-02-15T06:04:37;26.35;;;12.05;;
28587;SDS011;15787;49.662;10.162;2023-02-15T06:07:10;25.17;;;10.95;;
28587;SDS011;15787;49.662;10.162;2023-02-15T06:09:43;29.10;;;12.57;;
28587;SDS011;15787;49.662;10.162;2023-02-15T06:12:16;31.17;;;13.43;;
28587;SDS011;15787;49.662;10.162;2023-02-15T06:14:50;27.73;;;12.27;;
28587;SDS011;15787;49.662;10.162;2023-02-15T06:17:24;28.88;;;12.40;;
28587;SDS011;15787;49.662;10.162;2023-02-15T06:19:57;23.48;;;11.07;;
28587;SDS011;15787;49.662;10.162;2023-02-15T06:22:29;30.08;;;13.38;;
28587;SDS011;15787;49.662;10.162;2023-02-15T06:25:02;27.38;;;12.85;;
28587;SDS011;15787;49.662;10.162;2023-02-15T06:27:35;27.05;;;12.57;;
28587;SDS011;15787;49.662;10.162;2023-02-15T06:30:11;30.63;;;12.90;;
28587;SDS011;15787;49.662;10.162;2023-02-15T06:32:45;25.65;;;11.57;;
28587;SDS011;15787;49.662;10.162;2023-02-15T06:35:18;34.30;;;13.70;;
28587;SDS011;15787;49.662;10.162;2023-02-15T06:37:51;30.08;;;12.07;;
28587;SDS011;15787;49.662;10.162;2023-02-15T06:40:24;30.88;;;13.32;;
28587;SDS011;15787;49.662;10.162;2023-02-15T06:42:56;29.08;;;12.32;;
28587;SDS011;15787;49.662;10.162;2023-02-15T06:45:31;31.00;;;13.60;;
28587;SDS011;15787;49.662;10.162;2023-02-15T06:48:04;28.35;;;12.18;;
28587;SDS011;15787;49.662;10.162;2023-02-15T06:50:38;32.47;;;13.93;;
28587;SDS011;15787;49.662;10.162;2023-02-15T06:53:11;30.08;;;12.65;;
28587;SDS011;15787;49.662;10.162;2023-02-15T06:55:44;31.02;;;13.05;;
28587;SDS011;15787;49.662;10.162;2023-02-15T06:58:17;34.55;;;14.85;;
28587;SDS011;15787;49.662;10.162;2023-02-15T07:00:52;34.08;;;14.38;;
28587;SDS011;15787;49.662;10.162;2023-02-15T07:03:25;34.92;;;14.45;;
28587;SDS011;15787;49.662;10.162;2023-02-15T07:09:01;36.38;;;14.52;;
28587;SDS011;15787;49.662;10.162;2023-02-15T07:11:34;34.63;;;13.98;;
28587;SDS011;15787;49.662;10.162;2023-02-15T07:14:24;30.58;;;13.68;;
28587;SDS011;15787;49.662;10.162;2023-02-15T07:17:00;29.20;;;13.88;;
28587;SDS011;15787;49.662;10.162;2023-02-15T07:19:33;29.75;;;13.02;;
28587;SDS011;15787;49.662;10.162;2023-02-15T07:22:06;28.75;;;13.48;;
28587;SDS011;15787;49.662;10.162;2023-02-15T07:24:39;32.90;;;13.32;;
28587;SDS011;15787;49.662;10.162;2023-02-15T07:27:11;36.78;;;14.05;;
28587;SDS011;15787;49.662;10.162;2023-02-15T07:29:44;36.38;;;14.23;;
28587;SDS011;15787;49.662;10.162;2023-02-15T07:32:18;33.58;;;12.98;;
28587;SDS011;15787;49.662;10.162;2023-02-15T07:34:51;31.67;;;12.82;;
28587;SDS011;15787;49.662;10.162;2023-02-15T07:37:24;33.08;;;13.05;;
28587;SDS011;15787;49.662;10.162;2023-02-15T07:39:58;32.35;;;13.93;;
28587;SDS011;15787;49.662;10.162;2023-02-15T07:42:30;37.92;;;14.48;;
28587;SDS011;15787;49.662;10.162;2023-02-15T07:45:03;34.30;;;14.43;;
28587;SDS011;15787;49.662;10.162;2023-02-15T07:47:38;33.15;;;14.40;;
28587;SDS011;15787;49.662;10.162;2023-02-15T07:50:11;31.95;;;13.20;;
28587;SDS011;15787;49.662;10.162;2023-02-15T07:52:44;34.33;;;14.63;;
28587;SDS011;15787;49.662;10.162;2023-02-15T07:55:16;35.38;;;13.73;;
28587;SDS011;15787;49.662;10.162;2023-02-15T07:57:52;37.65;;;15.50;;
28587;SDS011;15787;49.662;10.162;2023-02-15T08:00:25;33.38;;;13.82;;
28587;SDS011;15787;49.662;10.162;2023-02-15T08:02:59;36.72;;;15.00;;
28587;SDS011;15787;49.662;10.162;2023-02-15T08:05:47;29.20;;;12.77;;
28587;SDS011;15787;49.662;10.162;2023-02-15T08:08:20;32.55;;;13.07;;
28587;SDS011;15787;49.662;10.162;2023-02-15T08:11:03;30.02;;;13.35;;
28587;SDS011;15787;49.662;10.162;2023-02-15T08:13:55;36.17;;;14.50;;
28587;SDS011;15787;49.662;10.162;2023-02-15T08:16:31;33.92;;;13.55;;
28587;SDS011;15787;49.662;10.162;2023-02-15T08:19:09;33.58;;;13.40;;
28587;SDS011;15787;49.662;10.162;2023-02-15T08:21:43;31.58;;;13.85;;
28587;SDS011;15787;49.662;10.162;2023-02-15T08:24:18;34.20;;;14.55;;
28587;SDS011;15787;49.662;10.162;2023-02-15T08:26:52;33.50;;;13.93;;
28587;SDS011;15787;49.662;10.162;2023-02-15T08:29:27;32.60;;;14.32;;
28587;SDS011;15787;49.662;10.162;2023-02-15T08:32:01;37.05;;;13.93;;
28587;SDS011;15787;49.662;10.162;2023-02-15T08:34:37;35.80;;;13.77;;
28587;SDS011;15787;49.662;10.162;2023-02-15T08:37:12;37.50;;;14.60;;
28587;SDS011;15787;49.662;10.162;2023-02-15T08:39:44;33.05;;;13.75;;
28587;SDS011;15787;49.662;10.162;2023-02-15T08:42:17;36.00;;;14.70;;
28587;SDS011;15787;49.662;10.162;2023-02-15T08:44:52;33.85;;;14.57;;
28587;SDS011;15787;49.662;10.162;2023-02-15T08:47:25;36.08;;;15.10;;
28587;SDS011;15787;49.662;10.162;2023-02-15T08:49:59;35.05;;;14.18;;
28587;SDS011;15787;49.662;10.162;2023-02-15T08:52:32;35.30;;;14.50;;
28587;SDS011;15787;49.662;10.162;2023-02-15T08:55:05;31.10;;;13.57;;
28587;SDS011;15787;49.662;10.162;2023-02-15T08:57:38;35.45;;;14.55;;
28587;SDS011;15787;49.662;10.162;2023-02-15T09:00:16;30.83;;;14.07;;
28587;SDS011;15787;49.662;10.162;2023-02-15T09:02:50;29.08;;;13.15;;
28587;SDS011;15787;49.662;10.162;2023-02-15T09:05:25;33.20;;;14.18;;
28587;SDS011;15787;49.662;10.162;2023-02-15T09:07:57;37.38;;;14.65;;
28587;SDS011;15787;49.662;10.162;2023-02-15T09:10:30;31.80;;;13.15;;
28587;SDS011;15787;49.662;10.162;2023-02-15T09:13:03;33.83;;;13.52;;
28587;SDS011;15787;49.662;10.162;2023-02-15T09:15:36;33.05;;;13.88;;
28587;SDS011;15787;49.662;10.162;2023-02-15T09:18:08;33.05;;;14.05;;
28587;SDS011;15787;49.662;10.162;2023-02-15T09:20:47;34.03;;;14.25;;
28587;SDS011;15787;49.662;10.162;2023-02-15T09:23:20;38.50;;;15.15;;
28587;SDS011;15787;49.662;10.162;2023-02-15T09:26:01;35.78;;;16.30;;
28587;SDS011;15787;49.662;10.162;2023-02-15T09:28:35;31.63;;;14.25;;
28587;SDS011;15787;49.662;10.162;2023-02-15T09:31:09;35.65;;;15.63;;
28587;SDS011;15787;49.662;10.162;2023-02-15T09:33:44;37.58;;;15.05;;
28587;SDS011;15787;49.662;10.162;2023-02-15T09:36:20;31.02;;;14.02;;
28587;SDS011;15787;49.662;10.162;2023-02-15T09:38:55;35.88;;;13.77;;
28587;SDS011;15787;49.662;10.162;2023-02-15T09:41:33;39.00;;;16.65;;
28587;SDS011;15787;49.662;10.162;2023-02-15T09:44:22;35.70;;;15.90;;
28587;SDS011;15787;49.662;10.162;2023-02-15T09:47:10;35.45;;;14.18;;
28587;SDS011;15787;49.662;10.162;2023-02-15T09:49:59;38.05;;;15.13;;
28587;SDS011;15787;49.662;10.162;2023-02-15T09:52:43;40.85;;;16.23;;
28587;SDS011;15787;49.662;10.162;2023-02-15T09:55:34;36.58;;;14.85;;
28587;SDS011;15787;49.662;10.162;2023-02-15T09:58:20;35.58;;;16.05;;
28587;SDS011;15787;49.662;10.162;2023-02-15T10:01:04;35.67;;;15.75;;
28587;SDS011;15787;49.662;10.162;2023-02-15T10:03:48;37.92;;;16.00;;
28587;SDS011;15787;49.662;10.162;2023-02-15T10:06:35;37.03;;;16.67;;
28587;SDS011;15787;49.662;10.162;2023-02-15T10:09:24;34.97;;;15.05;;
28587;SDS011;15787;49.662;10.162;2023-02-15T10:12:16;35.05;;;14.57;;
28587;SDS011;15787;49.662;10.162;2023-02-15T10:15:08;35.95;;;15.27;;
28587;SDS011;15787;49.662;10.162;2023-02-15T10:17:56;34.25;;;14.48;;
28587;SDS011;15787;49.662;10.162;2023-02-15T10:20:39;35.72;;;15.02;;
28587;SDS011;15787;49.662;10.162;2023-02-15T10:23:26;31.27;;;13.75;;
28587;SDS011;15787;49.662;10.162;2023-02-15T10:26:20;32.40;;;15.15;;
28587;SDS011;15787;49.662;10.162;2023-02-15T10:28:55;31.58;;;14.48;;
28587;SDS011;15787;49.662;10.162;2023-02-15T10:31:34;34.05;;;15.27;;
28587;SDS011;15787;49.662;10.162;2023-02-15T10:34:19;42.13;;;17.15;;
28587;SDS011;15787;49.662;10.162;2023-02-15T10:37:04;30.25;;;14.02;;
28587;SDS011;15787;49.662;10.162;2023-02-15T10:39:52;33.17;;;15.77;;
28587;SDS011;15787;49.662;10.162;2023-02-15T10:42:37;30.10;;;14.40;;
28587;SDS011;15787;49.662;10.162;2023-02-15T10:45:27;29.05;;;14.00;;
28587;SDS011;15787;49.662;10.162;2023-02-15T10:51:18;33.55;;;15.40;;
28587;SDS011;15787;49.662;10.162;2023-02-15T10:54:02;31.13;;;15.00;;
28587;SDS011;15787;49.662;10.162;2023-02-15T10:56:43;33.45;;;15.57;;
28587;SDS011;15787;49.662;10.162;2023-02-15T10:59:34;29.42;;;15.10;;
28587;SDS011;15787;49.662;10.162;2023-02-15T11:02:20;31.10;;;14.73;;
28587;SDS011;15787;49.662;10.162;2023-02-15T11:05:08;34.72;;;16.50;;
28587;SDS011;15787;49.662;10.162;2023-02-15T11:07:54;35.05;;;15.88;;
28587;SDS011;15787;49.662;10.162;2023-02-15T11:10:32;32.60;;;15.43;;
28587;SDS011;15787;49.662;10.162;2023-02-15T11:13:10;30.88;;;14.93;;
28587;SDS011;15787;49.662;10.162;2023-02-15T11:15:49;30.75;;;14.07;;
28587;SDS011;15787;49.662;10.162;2023-02-15T11:18:27;30.95;;;15.18;;
28587;SDS011;15787;49.662;10.162;2023-02-15T11:21:07;29.58;;;14.70;;
28587;SDS011;15787;49.662;10.162;2023-02-15T11:23:45;34.63;;;15.05;;
28587;SDS011;15787;49.662;10.162;2023-02-15T11:26:21;28.75;;;14.27;;
28587;SDS011;15787;49.662;10.162;2023-02-15T11:29:01;29.38;;;13.95;;
28587;SDS011;15787;49.662;10.162;2023-02-15T11:31:44;28.02;;;13.52;;
28587;SDS011;15787;49.662;10.162;2023-02-15T11:34:21;27.05;;;12.70;;
28587;SDS011;15787;49.662;10.162;2023-02-15T11:37:00;30.70;;;15.10;;
28587;SDS011;15787;49.662;10.162;2023-02-15T11:39:37;29.80;;;14.15;;
28587;SDS011;15787;49.662;10.162;2023-02-15T11:42:11;28.67;;;13.82;;
28587;SDS011;15787;49.662;10.162;2023-02-15T11:44:51;28.88;;;13.57;;
28587;SDS011;15787;49.662;10.162;2023-02-15T11:47:33;27.95;;;14.00;;
28587;SDS011;15787;49.662;10.162;2023-02-15T11:50:10;29.30;;;12.95;;
28587;SDS011;15787;49.662;10.162;2023-02-15T11:52:44;27.88;;;12.45;;
28587;SDS011;15787;49.662;10.162;2023-02-15T11:55:18;30.55;;;14.32;;
28587;SDS011;15787;49.662;10.162;2023-02-15T11:57:54;28.23;;;13.27;;
28587;SDS011;15787;49.662;10.162;2023-02-15T12:00:32;27.20;;;13.30;;
28587;SDS011;15787;49.662;10.162;2023-02-15T12:03:11;27.50;;;13.65;;
28587;SDS011;15787;49.662;10.162;2023-02-15T12:05:49;25.42;;;13.30;;
28587;SDS011;15787;49.662;10.162;2023-02-15T12:08:26;26.05;;;13.45;;
28587;SDS011;15787;49.662;10.162;2023-02-15T12:11:09;27.60;;;13.48;;
28587;SDS011;15787;49.662;10.162;2023-02-15T12:13:53;25.60;;;12.82;;
28587;SDS011;15787;49.662;10.162;2023-02-15T12:16:28;25.15;;;12.80;;
28587;SDS011;15787;49.662;10.162;2023-02-15T12:19:10;25.77;;;13.07;;
28587;SDS011;15787;49.662;10.162;2023-02-15T12:21:52;24.20;;;13.18;;
28587;SDS011;15787;49.662;10.162;2023-02-15T12:24:26;26.25;;;13.00;;
28587;SDS011;15787;49.662;10.162;2023-02-15T12:27:02;26.17;;;12.80;;
28587;SDS011;15787;49.662;10.162;2023-02-15T12:29:39;30.30;;;13.40;;
28587;SDS011;15787;49.662;10.162;2023-02-15T12:32:18;28.88;;;13.15;;
28587;SDS011;15787;49.662;10.162;2023-02-15T12:35:00;25.38;;;12.55;;
28587;SDS011;15787;49.662;10.162;2023-02-15T12:37:40;23.08;;;12.93;;
28587;SDS011;15787;49.662;10.162;2023-02-15T12:40:27;27.15;;;13.57;;
28587;SDS011;15787;49.662;10.162;2023-02-15T12:43:02;25.33;;;12.60;;
28587;SDS011;15787;49.662;10.162;2023-02-15T12:45:40;25.08;;;13.77;;
28587;SDS011;15787;49.662;10.162;2023-02-15T12:48:14;27.10;;;14.00;;
28587;SDS011;15787;49.662;10.162;2023-02-15T12:50:50;24.42;;;13.07;;
28587;SDS011;15787;49.662;10.162;2023-02-15T12:53:30;28.10;;;14.38;;
28587;SDS011;15787;49.662;10.162;2023-02-15T12:56:05;26.42;;;13.27;;
28587;SDS011;15787;49.662;10.162;2023-02-15T12:58:40;23.20;;;12.82;;
28587;SDS011;15787;49.662;10.162;2023-02-15T13:01:15;25.92;;;13.30;;
28587;SDS011;15787;49.662;10.162;2023-02-15T13:03:56;23.55;;;12.40;;
28587;SDS011;15787;49.662;10.162;2023-02-15T13:06:32;25.38;;;12.63;;
28587;SDS011;15787;49.662;10.162;2023-02-15T13:09:11;26.45;;;13.48;;
28587;SDS011;15787;49.662;10.162;2023-02-15T13:11:48;27.33;;;13.75;;
28587;SDS011;15787;49.662;10.162;2023-02-15T13:14:22;26.42;;;13.13;;
28587;SDS011;15787;49.662;10.162;2023-02-15T13:17:01;23.17;;;12.57;;
28587;SDS011;15787;49.662;10.162;2023-02-15T13:19:39;25.92;;;13.07;;
28587;SDS011;15787;49.662;10.162;2023-02-15T13:22:17;27.98;;;14.80;;
28587;SDS011;15787;49.662;10.162;2023-02-15T13:24:53;28.85;;;14.88;;
28587;SDS011;15787;49.662;10.162;2023-02-15T13:27:32;28.65;;;13.73;;
28587;SDS011;15787;49.662;10.162;2023-02-15T13:30:13;27.92;;;14.68;;
28587;SDS011;15787;49.662;10.162;2023-02-15T13:32:54;31.75;;;16.23;;
28587;SDS011;15787;49.662;10.162;2023-02-15T13:35:34;28.38;;;14.68;;
28587;SDS011;15787;49.662;10.162;2023-02-15T13:38:28;30.90;;;15.50;;
28587;SDS011;15787;49.662;10.162;2023-02-15T13:41:16;27.35;;;14.43;;
28587;SDS011;15787;49.662;10.162;2023-02-15T13:43:56;30.83;;;15.55;;
28587;SDS011;15787;49.662;10.162;2023-02-15T13:46:38;29.05;;;14.40;;
28587;SDS011;15787;49.662;10.162;2023-02-15T13:49:26;27.30;;;14.52;;
28587;SDS011;15787;49.662;10.162;2023-02-15T13:52:17;28.20;;;14.57;;
28587;SDS011;15787;49.662;10.162;2023-02-15T13:54:56;28.67;;;14.40;;
28587;SDS011;15787;49.662;10.162;2023-02-15T14:00:56;31.33;;;16.25;;
28587;SDS011;15787;49.662;10.162;2023-02-15T14:03:45;30.40;;;14.68;;
28587;SDS011;15787;49.662;10.162;2023-02-15T14:06:38;26.05;;;13.70;;
28587;SDS011;15787;49.662;10.162;2023-02-15T14:09:24;28.20;;;14.50;;
28587;SDS011;15787;49.662;10.162;2023-02-15T14:12:20;25.30;;;13.05;;
28587;SDS011;15787;49.662;10.162;2023-02-15T14:18:04;28.20;;;14.30;;
28587;SDS011;15787;49.662;10.162;2023-02-15T14:20:51;22.75;;;13.23;;
28587;SDS011;15787;49.662;10.162;2023-02-15T14:23:41;25.67;;;13.27;;
28587;SDS011;15787;49.662;10.162;2023-02-15T14:26:26;28.38;;;14.30;;
28587;SDS011;15787;49.662;10.162;2023-02-15T14:29:15;31.10;;;14.60;;
28587;SDS011;15787;49.662;10.162;2023-02-15T14:31:56;24.33;;;13.73;;
28587;SDS011;15787;49.662;10.162;2023-02-15T14:34:35;27.05;;;14.43;;
28587;SDS011;15787;49.662;10.162;2023-02-15T14:37:16;29.33;;;14.00;;
28587;SDS011;15787;49.662;10.162;2023-02-15T14:39:56;26.23;;;13.73;;
28587;SDS011;15787;49.662;10.162;2023-02-15T14:42:51;24.33;;;13.70;;
28587;SDS011;15787;49.662;10.162;2023-02-15T14:45:33;27.90;;;13.90;;
28587;SDS011;15787;49.662;10.162;2023-02-15T14:48:16;26.77;;;13.98;;
28587;SDS011;15787;49.662;10.162;2023-02-15T14:50:54;26.92;;;14.00;;
28587;SDS011;15787;49.662;10.162;2023-02-15T14:53:34;26.35;;;13.30;;
28587;SDS011;15787;49.662;10.162;2023-02-15T14:56:22;24.15;;;13.07;;
28587;SDS011;15787;49.662;10.162;2023-02-15T15:01:55;25.83;;;14.73;;
28587;SDS011;15787;49.662;10.162;2023-02-15T15:04:30;27.40;;;13.85;;
28587;SDS011;15787;49.662;10.162;2023-02-15T15:07:14;28.77;;;14.40;;
28587;SDS011;15787;49.662;10.162;2023-02-15T15:09:58;29.52;;;14.77;;
28587;SDS011;15787;49.662;10.162;2023-02-15T15:12:39;26.13;;;14.38;;
28587;SDS011;15787;49.662;10.162;2023-02-15T15:15:13;26.80;;;14.13;;
28587;SDS011;15787;49.662;10.162;2023-02-15T15:18:06;28.55;;;14.55;;
28587;SDS011;15787;49.662;10.162;2023-02-15T15:20:44;30.88;;;15.70;;
28587;SDS011;15787;49.662;10.162;2023-02-15T15:26:24;31.90;;;17.10;;
28587;SDS011;15787;49.662;10.162;2023-02-15T15:29:05;35.92;;;17.08;;
28587;SDS011;15787;49.662;10.162;2023-02-15T15:31:43;30.83;;;15.02;;
28587;SDS011;15787;49.662;10.162;2023-02-15T15:34:41;29.92;;;15.35;;
28587;SDS011;15787;49.662;10.162;2023-02-15T15:37:46;31.98;;;15.43;;
28587;SDS011;15787;49.662;10.162;2023-02-15T15:40:41;30.98;;;15.77;;